Odessa, TX

5:22 PM CDT en Septiembre 23, 2014 (GMT -0500)
E. University Blvd and Bonham Ave Odessa TX | Change Station
CLOSE
Current Station
Estación meteorológica personal
Location: Odessa, TX
Altura: 2949 ft
Estaciones meteorológicas cercanas

Alt 2949 ft 31.87 °N, 102.35 °W | Updated 2 minutes ago

Parcialmente nublado
Parcialmente nublado
83.5 ° F
Sensación térmica 85 ° F
N
3.7
Viento Variable Viento desde ESE

Hoy
Alta -- | Baja -- ° F
--% Posibilidad de precipitaciones
Ayer
Alta -- | Baja -- ° F
Precip. -- pul
7:38 AM 7:44 PM
Creciente menguante, 0% visible
Presión 29.98 pul
Visibilidad 10.0 Millas
Nubes Despejado
Índice de calor 85 ° F
Punto de rocío 64 ° F
Humedad 52%
Precipitaciones 0.00 pul
Espesor de la nieve No disponible.
UV 4 de una escala de 12
Polen 8.80 de una escala de 12
PM2.5 Moderada
Flu Activity No disponible.
METAR KODO 232153Z AUTO 16012KT 10SM CLR 28/16 A3011 RMK AO2 SLP152 T02780161

More Conditions Fewer Conditions

Presión 29.98 pul
Visibilidad 10.0 Millas
Nubes Despejado
Índice de calor 85 ° F
Punto de rocío 64 ° F
Humedad 52%
Precipitaciones 0.00 pul
Espesor de la nieve No disponible.
UV 4 de una escala de 12
Polen 8.80 de una escala de 12
PM2.5 Moderada
Flu Activity No disponible.
METAR KODO 232153Z AUTO 16012KT 10SM CLR 28/16 A3011 RMK AO2 SLP152 T02780161

More Conditions Fewer Conditions

10-Day Weather Forecast

Almanac

Astronomía

Sep. 23, 2014 Salida Puesta
Hora real 7:38 AM CDT 7:44 PM CDT
Crepúsculo civil 7:14 AM CDT 8:09 PM CDT
Crepúsculo náutico 6:45 AM CDT 8:37 PM CDT
Crepúsculo astronómico 6:17 AM CDT 9:06 PM CDT
Luna 7:05 AM CDT 7:26 PM CDT
Horas de luz 12h 55m
Horas de luz
12h 06m
Tomorrow will be 1m 56s shorter.
Creciente menguante, 0% of the Moon is Illuminated
Hoy
Creciente menguante
Sep 24
Nueva
Oct 1
Cuarto creciente
Oct 8
Luna llena
Oct 15
Cuarto menguante

Extremos de hoy

Máximos del estado Bajos del estado

Community

WunderPhotos

Upload Photos

1,755,801 ¡fotos cargadas!

WunderBlogs® & News

Nearby

Calidad del aire

  Calidad del aire Índice AQ Contaminante
Ayer Buena
PM2.5
Real Moderada
PM2.5
Martes Buena
PM10
Martes Buena
OZONE
Miércoles Buena
PM10
Miércoles Buena
OZONE
Jueves Buena
PM10
Jueves Buena
OZONE
Viernes Buena
PM10
Viernes Buena
OZONE

Grosos de nieve

Estación Profundido Altura
No tenemos constancia de nieve nueva.

Actividad de terremotos

Ciudad Distance Mag. Tiempo y dato
No hay informes recientes de la actividad sísmica.
Magnitud mínima muestra es 2,5.

Temperaturas de aguas costeras

Lugar Temperatura
Sin partes meteorológicos de las estaciones

Estaciones meteorológicas cercanas